Powersville, Kentucky
Current Conditions -  °F | °C
As of 8:15 PM on Wednesday 26 Nov 2014 (Local Time) from KFGX Reporting Station
Overcast Overcast  
Wind Chill: 29°   Ceiling: 12000
Heat Index: 34°   Visibility: 10mi
Dew Point: 29°   Wind: 6mph
Humidity: 82%   Direction: 60°ENE
Pressure: 30.03"   Gusts: NA
Location:  38.6516°N, 84.0942°W
Report Text: KFGX 270115Z AUTO 06005KT 10SM OVC120 01/M02 A3003 RMK AO2 T00101017
Loading
Personal Weather Stations






























Interactive Weather Map New forecast layout! Learn more

10-Day Weather Forecast

Advertisements
Track Severe Weather on mobile